createdAt,value
2023-05-22T00:01:36.869Z,57.46
2023-05-22T00:11:40.730Z,57.84
2023-05-22T00:21:44.571Z,58.18
2023-05-22T00:31:48.405Z,58.77
2023-05-22T00:41:55.682Z,59.15
2023-05-22T00:51:59.827Z,59.81
2023-05-22T01:02:03.741Z,60.37
2023-05-22T01:12:14.510Z,61.54
2023-05-22T01:22:22.122Z,62.41
2023-05-22T01:32:29.007Z,63.07
2023-05-22T01:42:33.127Z,63.64
2023-05-22T01:52:35.502Z,64.00
2023-05-22T02:02:42.927Z,64.29
2023-05-22T02:12:46.925Z,64.96
2023-05-22T02:22:50.468Z,65.50
2023-05-22T02:32:53.892Z,65.84
2023-05-22T02:42:57.736Z,66.24
2023-05-22T02:53:01.488Z,66.61
2023-05-22T03:03:04.945Z,66.94
2023-05-22T03:13:08.710Z,67.03
2023-05-22T03:23:12.018Z,67.22
2023-05-22T03:33:14.654Z,66.91
2023-05-22T03:43:18.366Z,66.26
2023-05-22T03:53:21.917Z,64.79
2023-05-22T04:03:25.619Z,63.24
2023-05-22T04:13:31.366Z,61.19
2023-05-22T04:23:35.277Z,58.93
2023-05-22T04:33:39.581Z,56.65
2023-05-22T04:43:43.486Z,55.29
2023-05-22T04:53:49.726Z,55.04
2023-05-22T05:03:53.603Z,54.30
2023-05-22T05:13:57.390Z,52.96
2023-05-22T05:24:01.861Z,52.35
2023-05-22T05:34:05.305Z,51.97
2023-05-22T05:44:08.931Z,51.67
2023-05-22T05:54:12.585Z,51.77
2023-05-22T06:04:16.333Z,51.05
2023-05-22T06:14:20.342Z,50.69
2023-05-22T06:24:24.085Z,49.96
2023-05-22T06:34:28.847Z,48.95
2023-05-22T06:44:32.870Z,47.98
2023-05-22T06:54:35.858Z,46.12
2023-05-22T07:04:39.452Z,45.28
2023-05-22T07:14:42.971Z,43.61
2023-05-22T07:24:47.056Z,41.92
2023-05-22T07:34:50.632Z,40.33
2023-05-22T07:44:54.893Z,39.60
2023-05-22T07:54:58.496Z,39.33
2023-05-22T08:05:03.936Z,39.20
2023-05-22T08:15:09.390Z,38.29
2023-05-22T08:25:13.912Z,37.43
2023-05-22T08:35:17.644Z,37.25
2023-05-22T08:45:21.826Z,37.37
2023-05-22T08:55:26.698Z,36.82
2023-05-22T09:05:31.131Z,37.81
2023-05-22T09:15:35.331Z,38.33
2023-05-22T09:25:39.169Z,38.25
2023-05-22T09:35:43.415Z,38.53
2023-05-22T09:45:47.078Z,38.51
2023-05-22T09:55:52.730Z,37.88
2023-05-22T10:05:58.944Z,37.49
2023-05-22T10:16:04.091Z,37.81
2023-05-22T10:26:08.557Z,37.81
2023-05-22T10:36:20.663Z,38.01
2023-05-22T10:46:24.516Z,37.49
2023-05-22T10:56:32.572Z,37.58
2023-05-22T11:06:35.991Z,37.37
2023-05-22T11:16:40.375Z,36.78
2023-05-22T11:26:44.715Z,37.04
2023-05-22T11:36:49.521Z,37.05
2023-05-22T11:46:53.989Z,37.83
2023-05-22T11:56:57.964Z,37.99
2023-05-22T12:07:01.976Z,37.13
2023-05-22T12:17:05.670Z,37.25
2023-05-22T12:27:08.477Z,36.17
2023-05-22T12:37:22.102Z,36.10
2023-05-22T12:47:26.607Z,36.17
2023-05-22T12:57:30.741Z,35.89
2023-05-22T13:07:34.538Z,36.00
2023-05-22T13:17:37.934Z,36.08
2023-05-22T13:27:42.205Z,35.63
2023-05-22T13:37:46.927Z,36.15
2023-05-22T13:47:50.777Z,36.42
2023-05-22T13:57:54.669Z,36.58
2023-05-22T14:07:58.621Z,36.31
2023-05-22T14:18:02.478Z,36.61
2023-05-22T14:28:07.040Z,36.23
2023-05-22T14:38:11.236Z,36.22
2023-05-22T14:48:15.277Z,35.35
2023-05-22T14:58:19.089Z,35.66
2023-05-22T15:08:22.754Z,35.89
2023-05-22T15:18:26.521Z,36.13
2023-05-22T15:28:30.863Z,36.17
2023-05-22T15:38:34.903Z,36.61
2023-05-22T15:48:38.705Z,36.46
2023-05-22T15:58:42.912Z,36.29
2023-05-22T16:08:46.470Z,36.57
2023-05-22T16:18:50.146Z,37.09
2023-05-22T16:28:53.894Z,37.41
2023-05-22T16:38:58.057Z,38.02
2023-05-22T16:49:01.964Z,38.41
2023-05-22T16:59:06.249Z,38.92
2023-05-22T17:09:10.165Z,39.40
2023-05-22T17:19:13.154Z,40.18
2023-05-22T17:29:16.785Z,40.55
2023-05-22T17:39:21.282Z,40.87
2023-05-22T17:49:25.300Z,41.24
2023-05-22T17:59:28.802Z,41.54
2023-05-22T18:09:32.231Z,41.92
2023-05-22T18:19:36.457Z,42.41
2023-05-22T18:29:40.093Z,42.77
2023-05-22T18:39:43.174Z,43.52
2023-05-22T18:49:46.891Z,44.32
2023-05-22T18:59:50.755Z,45.17
2023-05-22T19:09:54.827Z,46.32
2023-05-22T19:19:58.558Z,47.61
2023-05-22T19:30:02.467Z,48.64
2023-05-22T19:40:09.500Z,49.85
2023-05-22T19:50:13.709Z,50.96
2023-05-22T20:00:19.204Z,51.79
2023-05-22T20:10:23.307Z,52.47
2023-05-22T20:20:26.922Z,53.52
2023-05-22T20:30:30.815Z,54.37
2023-05-22T20:40:34.790Z,55.05
2023-05-22T20:50:39.950Z,55.67
2023-05-22T21:00:45.310Z,56.34
2023-05-22T21:10:48.812Z,57.08
2023-05-22T21:20:52.984Z,57.47
2023-05-22T21:30:56.913Z,57.41
2023-05-22T21:41:01.098Z,57.40
2023-05-22T21:51:05.128Z,57.14
2023-05-22T22:01:09.512Z,57.37
2023-05-22T22:11:13.306Z,57.42
2023-05-22T22:21:17.120Z,57.78
2023-05-22T22:31:21.161Z,58.46
2023-05-22T22:41:25.545Z,59.08
2023-05-22T22:51:29.668Z,59.52
2023-05-22T23:01:33.363Z,59.96
2023-05-22T23:11:37.753Z,60.65
2023-05-22T23:21:42.093Z,61.02
2023-05-22T23:31:46.875Z,61.43
2023-05-22T23:41:53.748Z,61.23
2023-05-22T23:51:57.135Z,61.14
